createdAt,value
2022-12-26T00:02:01.069Z,100398.47
2022-12-26T00:04:49.891Z,100388.41
2022-12-26T00:07:20.102Z,100373.06
2022-12-26T00:09:53.294Z,100371.91
2022-12-26T00:12:22.781Z,100380.94
2022-12-26T00:14:52.388Z,100368.75
2022-12-26T00:17:21.935Z,100377.41
2022-12-26T00:19:51.625Z,100377.31
2022-12-26T00:22:21.139Z,100379.69
2022-12-26T00:24:53.233Z,100370.50
2022-12-26T00:27:22.827Z,100369.09
2022-12-26T00:29:52.693Z,100370.44
2022-12-26T00:32:22.185Z,100359.22
2022-12-26T00:34:51.649Z,100347.56
2022-12-26T00:37:21.080Z,100358.41
2022-12-26T00:39:53.183Z,100351.38
2022-12-26T00:42:22.654Z,100375.97
2022-12-26T00:44:52.185Z,100385.00
2022-12-26T00:47:22.020Z,100400.84
2022-12-26T00:50:12.577Z,100410.91
2022-12-26T00:52:40.933Z,100413.56
2022-12-26T00:55:13.445Z,100422.81
2022-12-26T00:57:42.950Z,100418.69
2022-12-26T01:00:13.725Z,100412.66
2022-12-26T01:02:44.551Z,100412.66
2022-12-26T01:05:14.367Z,100413.47
2022-12-26T01:08:22.019Z,100407.41
2022-12-26T01:10:36.438Z,100411.63
2022-12-26T01:13:05.913Z,100405.59
2022-12-26T01:15:35.364Z,100393.97
2022-12-26T01:18:04.956Z,100388.69
2022-12-26T01:20:34.484Z,100382.59
2022-12-26T01:23:04.021Z,100371.75
2022-12-26T01:25:36.136Z,100360.81
2022-12-26T01:28:25.580Z,100343.97
2022-12-26T01:30:55.294Z,100331.97
2022-12-26T01:33:24.798Z,100280.03
2022-12-26T01:35:54.898Z,100258.84
2022-12-26T01:38:27.550Z,100238.56
2022-12-26T01:41:11.861Z,100219.88
2022-12-26T01:43:59.511Z,100203.50
2022-12-26T01:46:33.355Z,100183.22
2022-12-26T01:49:05.199Z,100169.06
2022-12-26T01:51:37.306Z,100162.41
2022-12-26T01:54:41.135Z,100159.84
2022-12-26T01:57:00.780Z,100172.81
2022-12-26T01:59:31.956Z,100176.25
2022-12-26T02:02:02.667Z,100174.63
2022-12-26T02:04:47.631Z,100175.53
2022-12-26T02:07:17.027Z,100160.19
2022-12-26T02:09:46.799Z,100162.75
2022-12-26T02:12:35.808Z,100156.97
2022-12-26T02:15:10.331Z,100148.50
2022-12-26T02:17:40.219Z,100153.47
2022-12-26T02:20:18.403Z,100140.66
2022-12-26T02:23:08.356Z,100138.09
2022-12-26T02:25:59.827Z,100133.47
2022-12-26T02:28:47.400Z,100123.56
2022-12-26T02:31:21.790Z,100131.06
2022-12-26T02:33:59.126Z,100134.59
2022-12-26T02:36:40.160Z,100137.16
2022-12-26T02:39:45.500Z,100131.38
2022-12-26T02:42:22.014Z,100127.88
2022-12-26T02:45:08.995Z,100131.88
2022-12-26T02:47:45.390Z,100120.81
2022-12-26T02:50:33.002Z,100125.09
2022-12-26T02:53:26.311Z,100118.34
2022-12-26T02:56:13.411Z,100117.47
2022-12-26T02:58:59.440Z,100110.69
2022-12-26T03:01:45.894Z,100100.53
2022-12-26T03:04:31.835Z,100099.50
2022-12-26T03:07:16.438Z,100091.03
2022-12-26T03:09:58.592Z,100079.03
2022-12-26T03:12:48.471Z,100071.69
2022-12-26T03:15:19.957Z,100061.50
2022-12-26T03:17:49.111Z,100056.31
2022-12-26T03:20:23.139Z,100057.13
2022-12-26T03:22:56.137Z,100047.84
2022-12-26T03:25:42.669Z,100054.78
2022-12-26T03:28:14.043Z,100050.00
2022-12-26T03:30:50.386Z,100042.94
2022-12-26T03:33:33.677Z,100052.47
2022-12-26T03:36:06.388Z,100036.22
2022-12-26T03:38:38.139Z,100046.44
2022-12-26T03:41:23.917Z,100041.34
2022-12-26T03:44:15.459Z,100034.63
2022-12-26T03:47:06.136Z,100040.63
2022-12-26T03:49:52.229Z,100035.50
2022-12-26T03:52:40.071Z,100037.59
2022-12-26T03:55:29.627Z,100036.53
2022-12-26T03:58:16.524Z,100030.78
2022-12-26T04:00:59.411Z,100029.97
2022-12-26T04:03:43.335Z,100019.72
2022-12-26T04:06:31.844Z,100016.22
2022-12-26T04:09:19.601Z,100023.09
2022-12-26T04:12:16.529Z,100021.34
2022-12-26T04:15:02.491Z,100015.50
2022-12-26T04:17:48.413Z,100012.13
2022-12-26T04:20:22.773Z,100013.81
2022-12-26T04:23:07.090Z,100015.72
2022-12-26T04:25:58.870Z,100014.78
2022-12-26T04:28:40.848Z,100012.34
2022-12-26T04:31:26.301Z,100014.84
2022-12-26T04:34:13.424Z,100003.75
2022-12-26T04:37:00.441Z,100003.88
2022-12-26T04:39:45.775Z,100003.09
2022-12-26T04:42:31.571Z,100004.84
2022-12-26T04:45:01.741Z,100008.28
2022-12-26T04:47:33.230Z,100003.09
2022-12-26T04:50:15.532Z,100009.00
2022-12-26T04:52:57.976Z,100009.25
2022-12-26T04:55:28.339Z,100002.34
2022-12-26T04:58:00.988Z,100011.84
2022-12-26T05:00:31.300Z,100016.66
2022-12-26T05:03:18.251Z,100010.91
2022-12-26T05:06:03.971Z,100009.28
2022-12-26T05:08:49.229Z,99999.94
2022-12-26T05:11:18.769Z,99998.41
2022-12-26T05:13:50.812Z,100001.06
2022-12-26T05:16:32.743Z,100002.09
2022-12-26T05:19:14.672Z,100002.09
2022-12-26T05:21:56.672Z,99993.59
2022-12-26T05:24:38.869Z,99983.50
2022-12-26T05:27:21.210Z,99974.84
2022-12-26T05:29:53.407Z,99957.91
2022-12-26T05:32:35.827Z,99959.50
2022-12-26T05:35:05.347Z,99955.56
2022-12-26T05:37:35.420Z,99957.22
2022-12-26T05:40:05.118Z,99963.03
2022-12-26T05:42:34.589Z,99952.19
2022-12-26T05:45:07.240Z,99952.91
2022-12-26T05:47:36.610Z,99964.09
2022-12-26T05:50:06.475Z,99955.66
2022-12-26T05:52:36.108Z,99951.31
2022-12-26T05:55:05.829Z,99957.44
2022-12-26T05:57:35.387Z,99927.47
2022-12-26T06:00:09.162Z,99903.63
2022-12-26T06:02:38.652Z,99907.94
2022-12-26T06:05:09.088Z,99913.13
2022-12-26T06:07:38.575Z,99902.88
2022-12-26T06:10:09.291Z,99907.19
2022-12-26T06:12:38.866Z,99909.06
2022-12-26T06:15:12.859Z,99912.47
2022-12-26T06:17:42.665Z,99913.25
2022-12-26T06:20:12.988Z,99927.03
2022-12-26T06:22:42.431Z,99931.28
2022-12-26T06:25:12.634Z,99937.28
2022-12-26T06:27:42.094Z,99939.91
2022-12-26T06:30:15.026Z,99936.53
2022-12-26T06:32:44.515Z,99934.06
2022-12-26T06:35:13.982Z,99938.28
2022-12-26T06:37:43.363Z,99943.41
2022-12-26T06:40:13.617Z,99941.75
2022-12-26T06:42:43.065Z,99943.41
2022-12-26T06:45:15.459Z,99945.97
2022-12-26T06:47:45.027Z,99944.47
2022-12-26T06:50:14.474Z,99949.63
2022-12-26T06:52:43.927Z,99941.09
2022-12-26T06:55:13.371Z,99959.06
2022-12-26T06:57:42.763Z,99968.59
2022-12-26T07:00:16.893Z,99966.19
2022-12-26T07:02:46.417Z,99951.69
2022-12-26T07:05:16.224Z,99944.88
2022-12-26T07:07:45.671Z,99953.47
2022-12-26T07:10:15.341Z,99955.28
2022-12-26T07:12:44.710Z,99957.91
2022-12-26T07:15:17.233Z,99964.00
2022-12-26T07:17:46.679Z,99977.75
2022-12-26T07:20:16.176Z,99980.31
2022-12-26T07:22:45.547Z,99976.13
2022-12-26T07:25:15.362Z,99985.56
2022-12-26T07:27:44.811Z,99989.91
2022-12-26T07:30:17.114Z,100000.28
2022-12-26T07:32:46.500Z,99980.66
2022-12-26T07:35:16.137Z,99988.34
2022-12-26T07:37:45.556Z,99990.09
2022-12-26T07:40:15.935Z,100005.59
2022-12-26T07:42:45.446Z,100002.19
2022-12-26T07:45:18.233Z,99992.78
2022-12-26T07:47:47.604Z,99991.13
2022-12-26T07:50:17.192Z,99981.00
2022-12-26T07:52:46.624Z,99982.69
2022-12-26T07:55:16.067Z,99986.94
2022-12-26T07:57:49.354Z,99981.06
2022-12-26T08:00:22.647Z,99975.13
2022-12-26T08:02:53.551Z,99978.50
2022-12-26T08:05:23.345Z,99969.28
2022-12-26T08:07:52.842Z,99968.53
2022-12-26T08:10:22.215Z,99971.19
2022-12-26T08:12:51.691Z,99960.13
2022-12-26T08:15:23.969Z,99963.63
2022-12-26T08:17:53.343Z,99962.75
2022-12-26T08:20:22.728Z,99958.66
2022-12-26T08:22:52.141Z,99954.47
2022-12-26T08:25:22.099Z,99952.91
2022-12-26T08:27:51.796Z,99967.44
2022-12-26T08:30:23.781Z,99972.59
2022-12-26T08:32:54.161Z,99970.25
2022-12-26T08:35:23.601Z,99970.25
2022-12-26T08:37:53.031Z,99977.22
2022-12-26T08:40:39.763Z,99981.47
2022-12-26T08:43:32.013Z,99980.84
2022-12-26T08:46:06.975Z,99965.47
2022-12-26T08:48:37.483Z,99984.28
2022-12-26T08:51:09.363Z,99983.56
2022-12-26T08:53:39.639Z,99989.53
2022-12-26T08:56:11.026Z,99993.00
2022-12-26T08:58:40.506Z,100003.91
2022-12-26T09:01:15.185Z,100021.94
2022-12-26T09:03:45.167Z,100027.06
2022-12-26T09:06:16.425Z,100050.81
2022-12-26T09:08:46.093Z,100079.09
2022-12-26T09:11:17.107Z,100097.13
2022-12-26T09:13:47.597Z,100122.84
2022-12-26T09:16:21.643Z,100137.50
2022-12-26T09:18:52.060Z,100153.66
2022-12-26T09:21:21.490Z,100184.59
2022-12-26T09:23:50.862Z,100210.25
2022-12-26T09:26:22.421Z,100230.13
2022-12-26T09:28:51.835Z,100253.19
2022-12-26T09:31:25.093Z,100283.16
2022-12-26T09:33:54.992Z,100326.84
2022-12-26T09:36:26.141Z,100376.31
2022-12-26T09:38:56.085Z,100401.16
2022-12-26T09:41:50.506Z,100422.53
2022-12-26T09:44:22.819Z,100442.56
2022-12-26T09:47:00.643Z,100450.19
2022-12-26T09:49:33.448Z,100466.44
2022-12-26T09:52:05.258Z,100481.03
2022-12-26T09:54:41.073Z,100485.53
2022-12-26T09:57:20.275Z,100495.88
2022-12-26T09:59:53.142Z,100505.34
2022-12-26T10:02:26.879Z,100510.47
2022-12-26T10:04:57.254Z,100509.66
2022-12-26T10:07:31.981Z,100516.50
2022-12-26T10:10:10.194Z,100519.13
2022-12-26T10:12:49.348Z,100519.13
2022-12-26T10:15:30.874Z,100520.91
2022-12-26T10:18:13.016Z,100520.16
2022-12-26T10:20:58.607Z,100527.22
2022-12-26T10:23:34.988Z,100523.78
2022-12-26T10:26:10.939Z,100521.28
2022-12-26T10:28:47.209Z,100528.97
2022-12-26T10:31:22.430Z,100529.16
2022-12-26T10:33:57.642Z,100532.53
2022-12-26T10:36:34.746Z,100542.78
2022-12-26T10:39:05.437Z,100534.19
2022-12-26T10:41:37.475Z,100528.16
2022-12-26T10:44:07.231Z,100528.25
2022-12-26T10:46:59.895Z,100530.19
2022-12-26T10:49:31.960Z,100520.25
2022-12-26T10:52:03.124Z,100533.88
2022-12-26T10:54:33.040Z,100518.78
2022-12-26T10:57:04.972Z,100515.56
2022-12-26T10:59:43.529Z,100520.88
2022-12-26T11:02:26.027Z,100524.38
2022-12-26T11:05:15.968Z,100531.44
2022-12-26T11:07:59.552Z,100535.78
2022-12-26T11:10:31.303Z,100525.41
2022-12-26T11:13:03.974Z,100523.66
2022-12-26T11:15:35.881Z,100517.94
2022-12-26T11:18:20.618Z,100516.19
2022-12-26T11:20:53.359Z,100505.03
2022-12-26T11:23:29.020Z,100508.34
2022-12-26T11:25:59.637Z,100506.31
2022-12-26T11:28:32.701Z,100493.75
2022-12-26T11:31:03.262Z,100499.84
2022-12-26T11:33:34.770Z,100492.13
2022-12-26T11:36:13.457Z,100490.38
2022-12-26T11:38:51.008Z,100493.06
2022-12-26T11:41:39.548Z,100501.50
2022-12-26T11:44:18.745Z,100488.03
2022-12-26T11:46:52.971Z,100488.09
2022-12-26T11:49:29.321Z,100482.28
2022-12-26T11:52:02.941Z,100483.78
2022-12-26T11:54:41.392Z,100475.19
2022-12-26T11:57:22.320Z,100476.09
2022-12-26T11:59:52.670Z,100472.03
2022-12-26T12:02:30.770Z,100469.72
2022-12-26T12:05:04.190Z,100471.09
2022-12-26T12:07:52.867Z,100468.69
2022-12-26T12:10:50.699Z,100466.59
2022-12-26T12:13:29.965Z,100463.25
2022-12-26T12:16:02.865Z,100461.75
2022-12-26T12:18:42.357Z,100452.97
2022-12-26T12:21:18.434Z,100444.59
2022-12-26T12:24:07.657Z,100454.13
2022-12-26T12:26:40.657Z,100449.59
2022-12-26T12:29:23.072Z,100449.28
2022-12-26T12:32:03.749Z,100444.66
2022-12-26T12:34:46.366Z,100459.97
2022-12-26T12:37:23.988Z,100444.50
2022-12-26T12:40:02.333Z,100438.72
2022-12-26T12:42:43.288Z,100430.22
2022-12-26T12:45:27.185Z,100427.72
2022-12-26T12:48:07.202Z,100419.31
2022-12-26T12:50:41.074Z,100416.88
2022-12-26T12:53:18.409Z,100412.97
2022-12-26T12:56:03.546Z,100403.09
2022-12-26T12:58:37.885Z,100410.88
2022-12-26T13:01:10.882Z,100408.38
2022-12-26T13:03:44.840Z,100413.06
2022-12-26T13:06:18.008Z,100430.38
2022-12-26T13:08:51.004Z,100439.69
2022-12-26T13:11:29.065Z,100442.41
2022-12-26T13:14:02.211Z,100456.22
2022-12-26T13:16:33.864Z,100463.94
2022-12-26T13:19:07.220Z,100482.63
2022-12-26T13:21:39.584Z,100484.47
2022-12-26T13:24:25.132Z,100490.44
2022-12-26T13:27:02.719Z,100498.78
2022-12-26T13:29:37.872Z,100502.03
2022-12-26T13:32:16.549Z,100516.63
2022-12-26T13:34:46.262Z,100532.81
2022-12-26T13:37:57.111Z,100552.75
2022-12-26T13:40:29.381Z,100575.94
2022-12-26T13:43:17.459Z,100583.59
2022-12-26T13:45:53.881Z,100610.44
2022-12-26T13:49:08.215Z,100603.16
2022-12-26T13:52:02.525Z,100591.03
2022-12-26T13:54:33.291Z,100591.44
2022-12-26T13:57:14.109Z,100594.16
2022-12-26T13:59:54.486Z,100604.03
2022-12-26T14:03:15.840Z,100598.56
2022-12-26T14:05:38.036Z,100603.66
2022-12-26T14:08:11.765Z,100612.16
2022-12-26T14:10:44.173Z,100609.41
2022-12-26T14:13:33.742Z,100616.91
2022-12-26T14:16:10.833Z,100625.47
2022-12-26T14:18:47.885Z,100617.94
2022-12-26T14:21:35.066Z,100619.56
2022-12-26T14:24:14.200Z,100618.81
2022-12-26T14:26:49.762Z,100616.75
2022-12-26T14:29:24.709Z,100623.28
2022-12-26T14:32:13.006Z,100606.50
2022-12-26T14:34:55.638Z,100611.63
2022-12-26T14:37:31.677Z,100600.38
2022-12-26T14:40:10.427Z,100611.50
2022-12-26T14:43:14.286Z,100606.28
2022-12-26T14:45:47.174Z,100600.91
2022-12-26T14:48:49.902Z,100609.06
2022-12-26T14:51:34.415Z,100594.63
2022-12-26T14:54:22.306Z,100603.16
2022-12-26T14:56:52.743Z,100602.31
2022-12-26T14:59:32.242Z,100595.22
2022-12-26T15:02:12.872Z,100591.69
2022-12-26T15:04:53.981Z,100590.78
2022-12-26T15:08:04.959Z,100590.63
2022-12-26T15:11:10.710Z,100599.06
2022-12-26T15:14:04.565Z,100598.56
2022-12-26T15:16:57.974Z,100615.50
2022-12-26T15:20:03.855Z,100614.81
2022-12-26T15:23:04.667Z,100616.34
2022-12-26T15:26:05.163Z,100620.50
2022-12-26T15:29:21.985Z,100624.44
2022-12-26T15:32:00.430Z,100618.75
2022-12-26T15:34:51.402Z,100612.91
2022-12-26T15:37:35.722Z,100608.13
2022-12-26T15:40:15.398Z,100617.72
2022-12-26T15:42:57.562Z,100617.22
2022-12-26T15:45:45.056Z,100627.72
2022-12-26T15:48:25.660Z,100627.72
2022-12-26T15:51:02.793Z,100638.25
2022-12-26T15:53:41.062Z,100646.97
2022-12-26T15:56:36.792Z,100647.38
2022-12-26T15:59:29.814Z,100656.00
2022-12-26T16:01:59.885Z,100665.78
2022-12-26T16:04:33.020Z,100670.00
2022-12-26T16:07:10.878Z,100676.78
2022-12-26T16:09:46.511Z,100686.00
2022-12-26T16:12:30.320Z,100698.06
2022-12-26T16:15:04.709Z,100711.94
2022-12-26T16:17:34.415Z,100724.28
2022-12-26T16:20:40.142Z,100736.06
2022-12-26T16:23:10.691Z,100752.81
2022-12-26T16:25:40.198Z,100767.03
2022-12-26T16:28:14.159Z,100783.69
2022-12-26T16:30:43.890Z,100787.34
2022-12-26T16:33:14.913Z,100806.97
2022-12-26T16:35:44.927Z,100822.41
2022-12-26T16:38:17.701Z,100843.19
2022-12-26T16:40:48.598Z,100857.16
2022-12-26T16:43:34.640Z,100863.25
2022-12-26T16:46:06.458Z,100877.34
2022-12-26T16:48:36.828Z,100881.56
2022-12-26T16:51:09.155Z,100888.00
2022-12-26T16:53:46.250Z,100864.59
2022-12-26T16:56:27.220Z,100889.56
2022-12-26T16:59:09.697Z,100884.22
2022-12-26T17:01:42.376Z,100891.00
2022-12-26T17:04:22.545Z,100895.00
2022-12-26T17:06:54.417Z,100915.53
2022-12-26T17:09:25.001Z,100925.53
2022-12-26T17:11:57.754Z,100927.06
2022-12-26T17:14:31.828Z,100936.47
2022-12-26T17:17:02.096Z,100941.91
2022-12-26T17:19:33.545Z,100946.81
2022-12-26T17:22:25.058Z,100959.56
2022-12-26T17:24:54.777Z,100970.75
2022-12-26T17:27:26.328Z,100970.53
2022-12-26T17:30:00.646Z,100976.19
2022-12-26T17:32:35.090Z,100967.22
2022-12-26T17:35:07.649Z,100965.19
2022-12-26T17:37:37.564Z,100959.66
2022-12-26T17:40:23.487Z,100960.44
2022-12-26T17:42:55.509Z,100965.75
2022-12-26T17:45:29.716Z,100960.44
2022-12-26T17:48:00.398Z,100971.41
2022-12-26T17:50:33.374Z,100962.50
2022-12-26T17:53:07.121Z,100976.91
2022-12-26T17:55:36.900Z,100958.31
2022-12-26T17:58:06.417Z,100964.72
2022-12-26T18:00:39.669Z,100953.50
2022-12-26T18:03:09.665Z,100962.84
2022-12-26T18:05:39.696Z,100965.91
2022-12-26T18:08:09.582Z,100966.69
2022-12-26T18:10:39.598Z,100959.81
2022-12-26T18:13:11.694Z,100965.72
2022-12-26T18:15:43.763Z,100967.47
2022-12-26T18:18:23.625Z,100979.22
2022-12-26T18:20:53.497Z,100985.06
2022-12-26T18:23:23.091Z,100985.19
2022-12-26T18:25:54.754Z,100987.94
2022-12-26T18:28:24.360Z,100987.06
2022-12-26T18:30:57.728Z,100991.25
2022-12-26T18:33:27.202Z,100987.81
2022-12-26T18:36:00.756Z,100993.69
2022-12-26T18:38:32.531Z,100994.28
2022-12-26T18:41:02.625Z,100995.78
2022-12-26T18:43:32.378Z,100995.78
2022-12-26T18:46:04.508Z,101005.22
2022-12-26T18:48:34.076Z,101007.66
2022-12-26T18:51:04.839Z,101011.38
2022-12-26T18:53:34.330Z,101004.75
2022-12-26T18:56:03.699Z,101012.28
2022-12-26T18:58:33.189Z,101016.81
2022-12-26T19:01:06.339Z,101017.38
2022-12-26T19:03:35.985Z,101024.00
2022-12-26T19:06:05.490Z,101031.88
2022-12-26T19:08:35.019Z,101039.06
2022-12-26T19:11:04.864Z,101033.72
2022-12-26T19:13:36.229Z,101036.94
2022-12-26T19:16:08.826Z,101047.22
2022-12-26T19:18:38.622Z,101048.78
2022-12-26T19:21:08.628Z,101062.03
2022-12-26T19:23:38.162Z,101045.97
2022-12-26T19:26:11.869Z,101051.19
2022-12-26T19:28:42.192Z,101037.47
2022-12-26T19:31:16.619Z,101042.97
2022-12-26T19:33:46.343Z,101045.88
2022-12-26T19:36:16.337Z,101058.72
2022-12-26T19:38:45.938Z,101049.47
2022-12-26T19:41:17.410Z,101057.00
2022-12-26T19:43:46.947Z,101058.53
2022-12-26T19:46:19.037Z,101058.16
2022-12-26T19:48:48.634Z,101057.28
2022-12-26T19:51:19.362Z,101062.13
2022-12-26T19:53:49.332Z,101063.78
2022-12-26T19:56:20.994Z,101066.31
2022-12-26T19:58:56.079Z,101063.41
2022-12-26T20:01:30.917Z,101070.94
2022-12-26T20:04:01.678Z,101071.84
2022-12-26T20:06:33.758Z,101074.78
2022-12-26T20:09:05.598Z,101076.56
2022-12-26T20:11:37.098Z,101075.66
2022-12-26T20:14:08.384Z,101084.72
2022-12-26T20:19:32.427Z,101091.84
2022-12-26T20:22:01.914Z,101093.50
2022-12-26T20:24:31.443Z,101094.25
2022-12-26T20:27:00.960Z,101093.50
2022-12-26T20:29:30.454Z,101085.84
2022-12-26T20:32:03.085Z,101084.59
2022-12-26T20:34:32.566Z,101091.22
2022-12-26T20:37:02.057Z,101099.38
2022-12-26T20:39:32.071Z,101102.19
2022-12-26T20:42:01.892Z,101104.59
2022-12-26T20:44:31.372Z,101110.59
2022-12-26T20:47:03.444Z,101112.88
2022-12-26T20:49:33.004Z,101111.59
2022-12-26T20:52:02.533Z,101108.81
2022-12-26T20:54:32.090Z,101107.69
2022-12-26T20:57:01.633Z,101113.16
2022-12-26T20:59:31.112Z,101108.81
2022-12-26T21:02:03.448Z,101107.56
2022-12-26T21:04:33.191Z,101113.78
2022-12-26T21:07:02.659Z,101118.25
2022-12-26T21:09:32.241Z,101121.66
2022-12-26T21:12:01.907Z,101130.84
2022-12-26T21:14:31.861Z,101125.59
2022-12-26T21:17:03.926Z,101131.19
2022-12-26T21:19:33.461Z,101134.75
2022-12-26T21:22:03.296Z,101134.75
2022-12-26T21:24:34.545Z,101139.19
2022-12-26T21:27:04.190Z,101145.44
2022-12-26T21:29:35.651Z,101150.53
2022-12-26T21:32:08.464Z,101146.97
2022-12-26T21:34:38.988Z,101153.06
2022-12-26T21:37:21.002Z,101150.66
2022-12-26T21:39:50.760Z,101154.75
2022-12-26T21:42:20.763Z,101156.91
2022-12-26T21:44:50.462Z,101167.09
2022-12-26T21:47:22.548Z,101160.63
2022-12-26T21:49:52.301Z,101159.59
2022-12-26T21:52:21.849Z,101168.75
2022-12-26T21:55:03.789Z,101168.53
2022-12-26T21:57:35.117Z,101166.63
2022-12-26T22:00:06.067Z,101166.88
2022-12-26T22:02:52.478Z,101164.84
2022-12-26T22:05:24.039Z,101160.38
2022-12-26T22:07:55.591Z,101150.84
2022-12-26T22:10:37.797Z,101153.25
2022-12-26T22:13:08.036Z,101160.16
2022-12-26T22:15:50.103Z,101160.78
2022-12-26T22:18:22.676Z,101157.19
2022-12-26T22:20:52.125Z,101154.16
2022-12-26T22:23:21.638Z,101158.88
2022-12-26T22:26:00.621Z,101168.66
2022-12-26T22:28:30.631Z,101158.22
2022-12-26T22:31:00.936Z,101156.97
2022-12-26T22:33:34.439Z,101156.47
2022-12-26T22:36:08.307Z,101169.31
2022-12-26T22:38:38.602Z,101169.56
2022-12-26T22:41:08.615Z,101178.34
2022-12-26T22:43:38.419Z,101171.22
2022-12-26T22:46:08.464Z,101172.22
2022-12-26T22:48:41.913Z,101172.88
2022-12-26T22:51:11.960Z,101182.81
2022-12-26T22:53:42.461Z,101177.84
2022-12-26T22:56:12.691Z,101182.16
2022-12-26T22:58:42.267Z,101177.72
2022-12-26T23:01:16.151Z,101181.66
2022-12-26T23:03:48.429Z,101177.84
2022-12-26T23:06:23.008Z,101183.56
2022-12-26T23:08:54.607Z,101172.50
2022-12-26T23:11:30.295Z,101187.63
2022-12-26T23:14:05.021Z,101180.75
2022-12-26T23:16:37.003Z,101194.38
2022-12-26T23:19:27.943Z,101192.59
2022-12-26T23:21:57.832Z,101187.38
2022-12-26T23:24:29.985Z,101181.13
2022-12-26T23:27:21.649Z,101178.59
2022-12-26T23:30:04.747Z,101156.31
2022-12-26T23:32:35.485Z,101177.19
2022-12-26T23:35:08.730Z,101178.59
2022-12-26T23:37:38.387Z,101183.69
2022-12-26T23:40:09.260Z,101187.25
2022-12-26T23:42:38.839Z,101166.88
2022-12-26T23:45:09.926Z,101175.91
2022-12-26T23:47:40.103Z,101171.72
2022-12-26T23:50:14.274Z,101181.38
2022-12-26T23:52:43.829Z,101177.19
2022-12-26T23:55:13.620Z,101175.25
2022-12-26T23:57:43.152Z,101173.63
